createdAt,value
2018-02-20T00:00:40.399Z,17.13
2018-02-20T00:03:12.795Z,15.53
2018-02-20T00:05:45.440Z,21.30
2018-02-20T00:08:17.919Z,19.43
2018-02-20T00:10:50.409Z,17.17
2018-02-20T00:13:22.865Z,14.13
2018-02-20T01:46:50.808Z,28.03
2018-02-20T01:49:23.272Z,24.33
2018-02-20T01:51:55.760Z,23.13
2018-02-20T01:54:28.229Z,19.93
2018-02-20T01:57:00.726Z,20.17
2018-02-20T01:59:33.183Z,19.03
2018-02-20T03:33:03.870Z,17.90
2018-02-20T03:35:36.336Z,16.80
2018-02-20T03:38:08.787Z,18.23
2018-02-20T03:40:41.274Z,14.13
2018-02-20T03:43:13.727Z,16.17
2018-02-20T05:32:25.221Z,14.80
2018-02-20T05:34:57.687Z,17.13
2018-02-20T05:37:30.176Z,14.70
2018-02-20T05:40:02.676Z,17.50
2018-02-20T05:42:35.133Z,13.07
2018-02-20T05:45:07.633Z,15.07
2018-02-20T05:47:40.089Z,13.93
2018-02-20T05:50:12.565Z,14.33
2018-02-20T05:52:45.048Z,12.20
2018-02-20T05:55:17.500Z,12.90
2018-02-20T05:57:50.021Z,14.63
2018-02-20T06:00:22.474Z,13.90
2018-02-20T06:02:54.944Z,14.80
2018-02-20T06:05:27.416Z,12.13
2018-02-20T06:07:59.908Z,13.27
2018-02-20T06:10:32.380Z,11.77
2018-02-20T06:13:04.849Z,11.93
2018-02-20T06:15:37.329Z,13.73
2018-02-20T06:18:09.810Z,16.07
2018-02-20T06:20:42.268Z,12.50
2018-02-20T06:23:14.768Z,17.07
2018-02-20T06:25:47.225Z,17.03
2018-02-20T06:28:19.719Z,15.60
2018-02-20T06:30:52.209Z,21.77
2018-02-20T06:33:25.470Z,17.00
2018-02-20T06:35:57.927Z,16.73
2018-02-20T06:38:30.417Z,15.67
2018-02-20T06:41:02.887Z,18.80
2018-02-20T06:43:35.359Z,15.90
2018-02-20T06:46:07.827Z,17.30
2018-02-20T06:48:40.308Z,15.37
2018-02-20T06:51:12.764Z,15.97
2018-02-20T06:53:45.253Z,14.67
2018-02-20T06:56:17.731Z,13.20
2018-02-20T06:58:50.191Z,14.70
2018-02-20T07:01:22.672Z,14.97
2018-02-20T07:03:55.140Z,14.77
2018-02-20T07:06:27.630Z,13.93
2018-02-20T07:09:00.150Z,13.63
2018-02-20T07:11:33.420Z,14.13
2018-02-20T07:14:05.888Z,12.30
2018-02-20T07:16:38.369Z,11.80
2018-02-20T07:19:10.827Z,12.73
2018-02-20T07:21:43.330Z,12.40
2018-02-20T07:24:15.803Z,13.07
2018-02-20T07:26:48.291Z,12.53
2018-02-20T07:29:20.764Z,14.57
2018-02-20T09:02:49.605Z,30.87
2018-02-20T09:05:22.092Z,25.03
2018-02-20T09:07:54.552Z,26.73
2018-02-20T09:10:27.080Z,22.30
2018-02-20T09:12:59.534Z,19.20
2018-02-20T11:02:08.861Z,11.57
2018-02-20T11:04:41.309Z,11.53
2018-02-20T11:07:13.799Z,14.00
2018-02-20T11:09:46.254Z,10.77
2018-02-20T11:12:18.725Z,11.97
2018-02-20T11:14:51.182Z,10.80
2018-02-20T13:00:57.857Z,13.37
2018-02-20T13:03:30.304Z,10.93
2018-02-20T13:06:02.775Z,9.57
2018-02-20T13:08:36.024Z,10.57
2018-02-20T13:11:08.508Z,12.40
2018-02-20T13:13:40.970Z,11.37
2018-02-20T15:02:50.971Z,19.13
2018-02-20T15:05:23.420Z,17.10
2018-02-20T15:07:55.901Z,17.73
2018-02-20T15:10:28.360Z,20.60
2018-02-20T15:13:00.851Z,23.13
2018-02-20T16:31:00.840Z,27.97
2018-02-20T16:33:34.062Z,23.67
2018-02-20T16:36:06.549Z,27.23
2018-02-20T16:38:39.023Z,22.73
2018-02-20T16:41:11.507Z,22.20
2018-02-20T16:43:43.985Z,20.17
2018-02-20T16:46:16.449Z,15.60
2018-02-20T16:48:48.925Z,18.63
2018-02-20T16:51:21.408Z,18.73
2018-02-20T16:53:53.860Z,18.30
2018-02-20T16:56:26.356Z,16.20
2018-02-20T16:58:58.811Z,16.57
2018-02-20T17:01:31.290Z,18.73
2018-02-20T17:04:03.785Z,17.17
2018-02-20T17:06:36.281Z,19.87
2018-02-20T17:09:08.751Z,17.27
2018-02-20T17:11:41.263Z,13.67
2018-02-20T17:14:14.484Z,19.93
2018-02-20T17:16:46.972Z,19.70
2018-02-20T17:19:19.433Z,14.60
2018-02-20T17:21:51.921Z,13.13
2018-02-20T17:24:24.384Z,15.43
2018-02-20T17:26:56.872Z,13.40
2018-02-20T17:29:31.029Z,14.80
2018-02-20T17:32:03.503Z,18.27
2018-02-20T17:34:36.028Z,15.23
2018-02-20T17:37:08.524Z,12.50
2018-02-20T17:39:40.976Z,13.53
2018-02-20T17:42:13.461Z,15.33
2018-02-20T17:44:45.929Z,14.37
2018-02-20T17:47:18.417Z,11.20
2018-02-20T17:49:50.888Z,13.87
2018-02-20T17:52:23.384Z,14.47
2018-02-20T17:54:55.875Z,12.90
2018-02-20T17:57:28.329Z,17.83
2018-02-20T18:00:00.818Z,16.87
2018-02-20T18:02:33.796Z,21.80
2018-02-20T18:05:06.454Z,23.30
2018-02-20T18:07:38.944Z,27.23
2018-02-20T18:10:11.421Z,16.83
2018-02-20T18:12:43.897Z,18.70
2018-02-20T18:15:16.382Z,20.03
2018-02-20T18:17:48.853Z,23.87
2018-02-20T18:20:21.340Z,22.00
2018-02-20T18:22:53.796Z,17.80
2018-02-20T18:25:26.297Z,15.20
2018-02-20T18:27:58.747Z,14.43
2018-02-20T18:30:31.237Z,22.40
2018-02-20T18:33:04.607Z,16.10
2018-02-20T18:35:37.092Z,25.83
2018-02-20T18:38:09.553Z,16.67
2018-02-20T18:40:42.049Z,17.80
2018-02-20T18:43:14.514Z,19.57
2018-02-20T18:45:47.000Z,16.90
2018-02-20T18:48:19.467Z,16.77
2018-02-20T18:50:51.944Z,17.80
2018-02-20T18:53:24.425Z,19.53
2018-02-20T18:55:56.887Z,26.73
2018-02-20T18:58:29.369Z,22.10
2018-02-20T19:01:01.832Z,17.97
2018-02-20T19:03:34.310Z,14.57
2018-02-20T19:06:06.773Z,16.87
2018-02-20T19:08:39.262Z,15.53
2018-02-20T19:11:11.727Z,15.13
2018-02-20T19:13:44.213Z,15.97
2018-02-20T19:16:19.680Z,15.87
2018-02-20T19:18:52.152Z,16.37
2018-02-20T19:21:24.607Z,16.40
2018-02-20T19:23:57.095Z,20.30
2018-02-20T19:26:29.557Z,18.37
2018-02-20T19:29:02.045Z,15.80
2018-02-20T19:31:34.505Z,16.00
2018-02-20T19:34:06.991Z,17.87
2018-02-20T19:36:39.471Z,15.00
2018-02-20T19:39:11.952Z,12.40
2018-02-20T19:41:44.444Z,14.90
2018-02-20T19:44:16.912Z,16.07
2018-02-20T19:46:49.387Z,13.47
2018-02-20T19:49:21.868Z,18.27
2018-02-20T19:51:54.332Z,13.47
2018-02-20T19:54:26.824Z,15.90
2018-02-20T19:56:59.297Z,14.97
2018-02-20T19:59:31.779Z,15.70
2018-02-20T20:02:04.237Z,19.20
2018-02-20T20:04:36.725Z,15.43
2018-02-20T20:07:09.192Z,16.20
2018-02-20T20:09:41.657Z,14.57
2018-02-20T20:12:14.145Z,15.20
2018-02-20T20:14:46.612Z,13.47
2018-02-20T20:17:19.115Z,12.47
2018-02-20T20:19:52.340Z,15.03
2018-02-20T20:22:24.837Z,14.53
2018-02-20T20:24:57.304Z,13.00
2018-02-20T20:27:29.805Z,12.70
2018-02-20T20:30:02.253Z,16.53
2018-02-20T20:32:34.739Z,16.27
2018-02-20T20:35:07.192Z,15.73
2018-02-20T20:37:39.685Z,13.33
2018-02-20T20:40:12.149Z,14.03
2018-02-20T20:42:44.628Z,15.53
2018-02-20T20:45:17.090Z,15.33
2018-02-20T20:47:49.573Z,12.47
2018-02-20T20:50:22.036Z,15.07
2018-02-20T20:52:54.525Z,16.47
2018-02-20T20:55:27.002Z,18.33
2018-02-20T20:57:59.500Z,21.50
2018-02-20T21:00:31.959Z,16.93
2018-02-20T21:03:04.448Z,14.80
2018-02-20T21:05:36.912Z,14.97
2018-02-20T21:08:09.400Z,13.60
2018-02-20T21:10:41.868Z,15.67
2018-02-20T21:13:14.382Z,16.77
2018-02-20T21:15:47.437Z,17.43
2018-02-20T21:18:19.920Z,15.23
2018-02-20T21:20:52.380Z,16.37
2018-02-20T21:23:24.857Z,16.00
2018-02-20T21:25:57.322Z,18.07
2018-02-20T21:28:29.792Z,16.07
2018-02-20T21:31:02.260Z,14.73
2018-02-20T21:33:34.753Z,16.10
2018-02-20T21:36:07.211Z,16.17
2018-02-20T21:38:39.739Z,13.53
2018-02-20T21:41:12.200Z,14.00
2018-02-20T21:43:44.652Z,14.33
2018-02-20T21:46:17.253Z,14.33
2018-02-20T21:48:49.721Z,14.67
2018-02-20T21:51:22.215Z,16.20
2018-02-20T21:53:54.676Z,13.67
2018-02-20T21:56:27.156Z,16.67
2018-02-20T21:58:59.620Z,14.73
2018-02-20T22:01:32.093Z,12.77
2018-02-20T22:04:04.551Z,12.77
2018-02-20T22:06:37.037Z,12.60
2018-02-20T22:09:09.521Z,11.80
2018-02-20T22:11:41.993Z,12.43
2018-02-20T22:14:14.485Z,13.93
2018-02-20T22:16:46.948Z,12.73
2018-02-20T22:19:19.425Z,10.87
2018-02-20T22:21:51.908Z,13.13
2018-02-20T22:24:24.364Z,14.40
2018-02-20T22:26:56.853Z,16.07
2018-02-20T22:29:29.317Z,17.13
2018-02-20T22:32:01.821Z,18.00
2018-02-20T22:34:34.296Z,18.30
2018-02-20T22:37:08.005Z,19.50
2018-02-20T22:39:40.485Z,20.83
2018-02-20T22:42:12.981Z,22.73
2018-02-20T22:44:46.206Z,15.47
2018-02-20T22:47:18.707Z,19.80
2018-02-20T22:49:51.189Z,16.13
2018-02-20T22:52:23.653Z,23.73
2018-02-20T22:54:56.145Z,19.63
2018-02-20T22:57:28.607Z,17.47
2018-02-20T23:00:01.092Z,16.87
2018-02-20T23:02:33.584Z,21.33
2018-02-20T23:05:06.061Z,19.50
2018-02-20T23:07:38.537Z,18.80
2018-02-20T23:10:11.024Z,19.43
2018-02-20T23:12:44.256Z,17.70
2018-02-20T23:15:16.754Z,19.50
2018-02-20T23:17:49.208Z,21.53
2018-02-20T23:20:21.692Z,26.30
2018-02-20T23:22:54.159Z,24.23
2018-02-20T23:25:26.651Z,29.83
2018-02-20T23:27:59.115Z,24.83
2018-02-20T23:30:31.616Z,23.97
2018-02-20T23:33:04.089Z,26.93
2018-02-20T23:35:36.583Z,22.80
2018-02-20T23:38:09.140Z,24.00
2018-02-20T23:40:41.632Z,31.90
2018-02-20T23:43:14.092Z,23.70
2018-02-20T23:45:46.584Z,28.67
2018-02-20T23:48:19.041Z,32.47
2018-02-20T23:50:52.071Z,26.57
2018-02-20T23:53:24.532Z,24.30
2018-02-20T23:55:57.788Z,21.70
2018-02-20T23:58:30.245Z,23.70
